Time;durP1;ratioP1;P1;durP2;ratioP2;P2;SDS_P1;SDS_P2;PMS_P1;PMS_P2;Temp;Humidity;BMP_temperature;BMP_pressure;BME280_temperature;BME280_humidity;BME280_pressure;Samples;Min_cycle;Max_cycle;Signal;HPM_P1;HPM_P2
2023/12/16 00:01:01;;;;;;;18.73;5.90;;;7.80;94.00;;;;;;5045362;28;20303;-55
2023/12/16 00:03:29;;;;;;;10.90;5.17;;;7.80;94.80;;;;;;5043332;28;20564;-56
2023/12/16 00:05:57;;;;;;;15.87;5.90;;;7.90;92.00;;;;;;5054620;28;20223;-57
2023/12/16 00:08:25;;;;;;;23.17;6.20;;;7.90;90.70;;;;;;5045897;28;20788;-56
2023/12/16 00:10:54;;;;;;;17.20;6.00;;;7.90;91.60;;;;;;5046882;28;20228;-54
2023/12/16 00:13:25;;;;;;;14.37;6.00;;;7.80;94.50;;;;;;5046112;28;20201;-56
2023/12/16 00:15:53;;;;;;;17.10;6.40;;;7.80;93.70;;;;;;5057793;28;21184;-57
2023/12/16 00:18:22;;;;;;;13.33;6.03;;;7.80;93.90;;;;;;5065992;28;20224;-57
2023/12/16 00:20:51;;;;;;;16.50;5.77;;;7.80;94.70;;;;;;5069583;28;20239;-57
2023/12/16 00:23:20;;;;;;;12.93;5.93;;;7.80;95.20;;;;;;5058299;28;20236;-56
2023/12/16 00:25:48;;;;;;;14.53;5.73;;;7.80;94.70;;;;;;5066023;28;20188;-57
2023/12/16 00:28:16;;;;;;;16.43;5.40;;;7.80;97.00;;;;;;5062947;28;20212;-55
2023/12/16 00:30:46;;;;;;;17.47;5.67;;;7.70;98.50;;;;;;5043968;28;20267;-57
2023/12/16 00:33:14;;;;;;;15.03;5.50;;;7.70;99.40;;;;;;5063007;28;20220;-57
2023/12/16 00:35:43;;;;;;;16.57;5.23;;;7.70;97.90;;;;;;5060427;28;20220;-57
2023/12/16 00:38:11;;;;;;;13.90;5.70;;;7.80;98.20;;;;;;5046554;28;20197;-56
2023/12/16 00:40:40;;;;;;;16.17;5.97;;;7.70;98.30;;;;;;5045623;28;20195;-57
2023/12/16 00:43:08;;;;;;;16.70;5.80;;;7.70;99.50;;;;;;5045846;28;20212;-55
2023/12/16 00:45:36;;;;;;;20.87;5.83;;;7.80;98.10;;;;;;5043708;28;20209;-57
2023/12/16 00:48:06;;;;;;;13.80;5.73;;;7.70;97.80;;;;;;5047848;28;20311;-57
2023/12/16 00:50:38;;;;;;;17.20;5.60;;;7.70;99.90;;;;;;5045454;28;20244;-55
2023/12/16 00:53:06;;;;;;;8.90;5.50;;;7.70;99.90;;;;;;5048425;28;20869;-56
2023/12/16 00:55:34;;;;;;;22.10;6.50;;;7.70;99.90;;;;;;5044883;28;20650;-55
2023/12/16 00:58:02;;;;;;;12.53;5.87;;;7.70;99.90;;;;;;5049570;28;20629;-57
2023/12/16 01:00:33;;;;;;;13.50;6.07;;;7.70;99.90;;;;;;5048934;28;20278;-57
2023/12/16 01:03:01;;;;;;;18.67;6.27;;;7.70;99.90;;;;;;5046636;28;20347;-57
2023/12/16 01:05:31;;;;;;;17.53;5.27;;;7.70;99.90;;;;;;5048461;28;20674;-54
2023/12/16 01:07:59;;;;;;;17.87;6.00;;;7.70;99.90;;;;;;5047035;28;20270;-56
2023/12/16 01:10:27;;;;;;;18.40;6.50;;;7.70;99.90;;;;;;5040980;28;20256;-57
2023/12/16 01:12:56;;;;;;;18.30;6.07;;;7.70;99.90;;;;;;5050200;28;20216;-57
2023/12/16 01:15:24;;;;;;;19.07;6.10;;;7.70;99.90;;;;;;5050531;28;20315;-55
2023/12/16 01:17:53;;;;;;;17.43;5.87;;;7.70;99.90;;;;;;5043461;28;20636;-57
2023/12/16 01:20:21;;;;;;;24.30;6.37;;;7.70;99.90;;;;;;5052036;28;20686;-56
2023/12/16 01:22:53;;;;;;;14.67;5.70;;;7.70;99.90;;;;;;5048761;28;20687;-57
2023/12/16 01:25:21;;;;;;;12.97;6.30;;;7.70;99.90;;;;;;5049503;28;20235;-57
2023/12/16 01:27:50;;;;;;;19.23;7.13;;;7.70;99.90;;;;;;5047216;28;20217;-56
2023/12/16 01:30:18;;;;;;;18.20;6.53;;;7.60;99.90;;;;;;5045562;28;20228;-57
2023/12/16 01:32:46;;;;;;;19.30;6.63;;;7.60;99.90;;;;;;5053600;28;20233;-57
2023/12/16 01:35:15;;;;;;;21.40;6.40;;;7.60;99.90;;;;;;5060409;28;20228;-55
2023/12/16 01:37:43;;;;;;;19.63;6.30;;;7.60;99.90;;;;;;5051146;28;20203;-57
2023/12/16 01:40:13;;;;;;;15.10;6.30;;;7.50;99.90;;;;;;5050521;28;20556;-57
2023/12/16 01:42:42;;;;;;;19.17;6.77;;;7.50;99.90;;;;;;5049593;28;20229;-57
2023/12/16 01:45:10;;;;;;;21.43;7.17;;;7.50;99.90;;;;;;5048232;28;20224;-54
2023/12/16 01:47:39;;;;;;;19.00;6.50;;;7.50;99.90;;;;;;5044443;28;20219;-57
2023/12/16 01:50:10;;;;;;;21.33;6.87;;;7.40;99.90;;;;;;5042206;28;20532;-57
2023/12/16 01:52:39;;;;;;;18.87;6.80;;;7.30;99.90;;;;;;5045019;28;20192;-57
2023/12/16 01:55:07;;;;;;;21.40;7.20;;;7.30;99.90;;;;;;5048679;28;20217;-57
2023/12/16 01:57:38;;;;;;;21.40;6.30;;;7.20;99.90;;;;;;5047470;28;20221;-57
2023/12/16 02:00:08;;;;;;;22.53;6.90;;;7.20;99.90;;;;;;5052423;28;20691;-57
2023/12/16 02:02:36;;;;;;;15.40;6.37;;;7.10;99.90;;;;;;5054814;28;20220;-56
2023/12/16 02:05:07;;;;;;;14.03;6.07;;;7.10;99.90;;;;;;5046901;28;20201;-57
2023/12/16 02:07:35;;;;;;;21.97;6.37;;;7.10;99.90;;;;;;5050864;28;20215;-56
2023/12/16 02:10:04;;;;;;;16.13;6.60;;;7.00;99.90;;;;;;5051025;28;20766;-57
2023/12/16 02:12:34;;;;;;;15.73;6.70;;;7.00;99.90;;;;;;5050732;28;20252;-57
2023/12/16 02:15:05;;;;;;;18.33;6.23;;;7.00;99.90;;;;;;5050697;28;20220;-57
2023/12/16 02:17:33;;;;;;;16.90;6.33;;;7.10;99.90;;;;;;5047623;28;20216;-57
2023/12/16 02:20:01;;;;;;;14.97;6.30;;;7.00;99.90;;;;;;5047219;28;20185;-57
2023/12/16 02:22:30;;;;;;;13.00;6.00;;;7.00;99.90;;;;;;5046813;28;20616;-57
2023/12/16 02:25:01;;;;;;;15.23;6.10;;;7.00;99.90;;;;;;5048209;28;20243;-56
2023/12/16 02:27:29;;;;;;;21.20;6.63;;;7.00;99.90;;;;;;5047536;28;20275;-55
2023/12/16 02:29:57;;;;;;;19.87;6.63;;;6.90;99.90;;;;;;5048926;28;20299;-57
2023/12/16 02:32:26;;;;;;;17.53;6.43;;;6.90;99.90;;;;;;5053893;28;20789;-56
2023/12/16 02:34:54;;;;;;;25.23;6.47;;;6.90;99.90;;;;;;5050520;28;20766;-57
2023/12/16 02:37:22;;;;;;;16.13;6.37;;;6.90;99.90;;;;;;5052754;28;20195;-57
2023/12/16 02:39:50;;;;;;;17.27;6.47;;;6.80;99.90;;;;;;5046941;28;20278;-57
2023/12/16 02:42:20;;;;;;;13.77;6.37;;;6.70;99.90;;;;;;5048207;28;20244;-53
2023/12/16 02:44:48;;;;;;;21.07;6.20;;;6.60;99.90;;;;;;5049307;28;20229;-57
2023/12/16 02:47:17;;;;;;;15.40;5.80;;;6.60;99.90;;;;;;5052228;28;20234;-57
2023/12/16 02:49:45;;;;;;;15.87;6.00;;;6.60;99.90;;;;;;5047449;28;20253;-56
2023/12/16 02:52:14;;;;;;;18.67;6.00;;;6.50;99.90;;;;;;5047950;28;20225;-57
2023/12/16 02:54:43;;;;;;;18.70;6.23;;;6.50;99.90;;;;;;5050434;28;20216;-57
2023/12/16 02:57:11;;;;;;;17.50;6.03;;;6.40;99.90;;;;;;5043811;28;20298;-55
2023/12/16 02:59:43;;;;;;;14.93;5.70;;;6.40;99.90;;;;;;5044760;28;20545;-55
2023/12/16 03:02:11;;;;;;;18.73;5.70;;;6.40;99.90;;;;;;5046234;28;20193;-55
2023/12/16 03:04:39;;;;;;;19.37;5.43;;;6.30;99.90;;;;;;5046202;28;20678;-57
2023/12/16 03:07:08;;;;;;;16.23;5.77;;;6.30;99.90;;;;;;5046976;28;20231;-57
2023/12/16 03:09:36;;;;;;;11.53;5.03;;;6.20;99.90;;;;;;5047899;28;20326;-57
2023/12/16 03:12:05;;;;;;;19.13;5.50;;;6.30;99.90;;;;;;5047758;28;22011;-57
2023/12/16 03:14:37;;;;;;;11.30;4.87;;;6.30;99.90;;;;;;5045652;28;20256;-57
2023/12/16 03:17:07;;;;;;;18.13;5.00;;;6.30;99.90;;;;;;5048738;28;20283;-57
2023/12/16 03:19:35;;;;;;;14.53;5.30;;;6.30;99.90;;;;;;5051519;28;20193;-55
2023/12/16 03:22:04;;;;;;;19.07;5.47;;;6.30;99.90;;;;;;5049955;28;20227;-57
2023/12/16 03:24:32;;;;;;;17.63;4.80;;;6.30;99.90;;;;;;5043230;28;20311;-55
2023/12/16 03:27:01;;;;;;;12.77;5.00;;;6.30;99.90;;;;;;5048561;28;20227;-55
2023/12/16 03:29:31;;;;;;;22.47;5.10;;;6.20;99.90;;;;;;5047136;28;20820;-56
2023/12/16 03:31:59;;;;;;;17.17;4.90;;;6.20;99.90;;;;;;5045784;28;20616;-56
2023/12/16 03:34:30;;;;;;;16.00;4.97;;;6.20;99.90;;;;;;5049674;28;20205;-57
2023/12/16 03:37:00;;;;;;;14.00;4.60;;;6.10;99.90;;;;;;5052078;28;21026;-56
2023/12/16 03:39:28;;;;;;;11.67;5.27;;;6.10;99.90;;;;;;5046163;28;20216;-57
2023/12/16 03:41:57;;;;;;;11.60;4.87;;;6.10;99.90;;;;;;5049225;28;20677;-56
2023/12/16 03:44:25;;;;;;;10.47;4.80;;;6.00;99.90;;;;;;5042901;28;20225;-57
2023/12/16 03:46:53;;;;;;;11.73;4.30;;;6.00;99.90;;;;;;5049522;28;20528;-55
2023/12/16 03:49:21;;;;;;;14.80;4.80;;;5.90;99.90;;;;;;5045877;28;20200;-57
2023/12/16 03:51:53;;;;;;;12.47;4.97;;;5.90;99.90;;;;;;5044851;28;20217;-56
2023/12/16 03:54:22;;;;;;;12.77;4.47;;;5.90;99.90;;;;;;5049405;28;20303;-55
2023/12/16 03:56:50;;;;;;;14.93;5.27;;;5.90;99.90;;;;;;5047800;28;20216;-55
2023/12/16 03:59:19;;;;;;;18.47;5.30;;;5.80;99.90;;;;;;5047181;28;20224;-56
2023/12/16 04:01:47;;;;;;;16.90;5.43;;;5.80;99.90;;;;;;5052753;28;20200;-55
2023/12/16 04:04:15;;;;;;;17.00;4.60;;;5.70;99.90;;;;;;5044608;28;20247;-56
2023/12/16 04:06:45;;;;;;;18.13;4.70;;;5.70;99.90;;;;;;5043758;28;20307;-56
2023/12/16 04:09:15;;;;;;;11.90;4.73;;;5.70;99.90;;;;;;5050024;28;20588;-57
2023/12/16 04:11:47;;;;;;;18.67;5.07;;;5.70;99.90;;;;;;5041254;28;20232;-55
2023/12/16 04:14:15;;;;;;;14.50;4.80;;;5.80;99.90;;;;;;5045373;28;20235;-57
2023/12/16 04:16:44;;;;;;;14.43;4.63;;;5.80;99.90;;;;;;5040779;28;20721;-56
2023/12/16 04:19:13;;;;;;;19.53;4.60;;;5.80;99.90;;;;;;5046831;28;20237;-57
2023/12/16 04:21:41;;;;;;;18.50;4.53;;;5.80;99.90;;;;;;5044537;28;21143;-56
2023/12/16 04:24:09;;;;;;;19.23;4.67;;;5.90;99.90;;;;;;5048069;28;20235;-57
2023/12/16 04:26:39;;;;;;;23.50;5.03;;;5.90;99.90;;;;;;5047559;28;20217;-56
2023/12/16 04:29:07;;;;;;;18.53;5.17;;;5.90;99.90;;;;;;5043499;28;20192;-56
2023/12/16 04:31:35;;;;;;;20.93;4.30;;;6.00;99.90;;;;;;5049322;28;20193;-57
2023/12/16 04:34:03;;;;;;;15.30;4.20;;;6.00;99.90;;;;;;5044095;28;20681;-57
2023/12/16 04:36:32;;;;;;;16.27;4.63;;;6.10;99.90;;;;;;5049271;28;20216;-57
2023/12/16 04:39:00;;;;;;;14.40;4.70;;;6.20;99.90;;;;;;5049079;28;20236;-57
2023/12/16 04:41:29;;;;;;;15.47;4.10;;;6.30;99.90;;;;;;5044992;28;20706;-57
2023/12/16 04:43:58;;;;;;;18.50;4.77;;;6.30;99.90;;;;;;5050421;28;20185;-57
2023/12/16 04:46:26;;;;;;;17.53;4.47;;;6.40;99.90;;;;;;5048518;28;20189;-56
2023/12/16 04:48:55;;;;;;;11.87;4.60;;;6.40;99.90;;;;;;5054209;28;20213;-56
2023/12/16 04:51:23;;;;;;;15.20;3.87;;;6.50;99.90;;;;;;5042662;28;20541;-57
2023/12/16 04:53:52;;;;;;;16.80;4.10;;;6.50;99.90;;;;;;5046047;28;20213;-57
2023/12/16 04:56:20;;;;;;;18.40;4.40;;;6.60;99.90;;;;;;5046394;28;20299;-55
2023/12/16 04:58:49;;;;;;;18.00;4.23;;;6.60;99.90;;;;;;5049803;28;20247;-56
2023/12/16 05:01:18;;;;;;;19.43;4.70;;;6.70;99.90;;;;;;5061610;28;20223;-57
2023/12/16 05:03:47;;;;;;;11.03;4.40;;;6.70;99.90;;;;;;5054372;28;20225;-56
2023/12/16 05:06:16;;;;;;;18.73;4.63;;;6.70;99.90;;;;;;5045246;28;20308;-57
2023/12/16 05:08:44;;;;;;;10.60;4.20;;;6.70;99.90;;;;;;5051069;28;20311;-56
2023/12/16 05:11:12;;;;;;;15.63;4.70;;;6.70;99.90;;;;;;5048450;28;20185;-55
2023/12/16 05:13:41;;;;;;;18.30;5.13;;;6.70;99.90;;;;;;5052580;28;20185;-57
2023/12/16 05:16:09;;;;;;;18.67;4.70;;;6.60;99.90;;;;;;5045443;28;20575;-56
2023/12/16 05:18:39;;;;;;;14.47;4.83;;;6.50;99.90;;;;;;5049573;28;20258;-56
2023/12/16 05:21:08;;;;;;;17.60;5.50;;;6.50;99.90;;;;;;5052206;28;20221;-55
2023/12/16 05:23:36;;;;;;;15.87;4.60;;;6.40;99.90;;;;;;5047859;28;20232;-57
2023/12/16 05:26:04;;;;;;;13.13;5.17;;;6.40;99.90;;;;;;5050628;28;20224;-57
2023/12/16 05:28:33;;;;;;;17.03;5.30;;;6.40;99.90;;;;;;5047780;28;20288;-57
2023/12/16 05:31:01;;;;;;;18.00;5.53;;;6.30;99.90;;;;;;5068740;28;20218;-57
2023/12/16 05:33:30;;;;;;;18.87;5.90;;;6.30;99.90;;;;;;5074493;28;20233;-57
2023/12/16 05:36:00;;;;;;;14.17;5.20;;;6.20;99.90;;;;;;5056339;28;20237;-53
2023/12/16 05:38:28;;;;;;;13.87;5.07;;;6.30;99.90;;;;;;5048193;28;20252;-55
2023/12/16 05:40:57;;;;;;;23.20;5.93;;;6.20;99.90;;;;;;5045496;28;20200;-57
2023/12/16 05:43:25;;;;;;;16.60;5.80;;;6.20;99.90;;;;;;5050606;28;20258;-56
2023/12/16 05:45:53;;;;;;;20.73;5.93;;;6.10;99.90;;;;;;5050843;28;20221;-57
2023/12/16 05:48:22;;;;;;;17.43;4.97;;;6.20;99.90;;;;;;5051896;28;20225;-55
2023/12/16 05:50:50;;;;;;;13.83;5.77;;;6.10;99.90;;;;;;5051415;28;20278;-56
2023/12/16 05:53:19;;;;;;;21.23;6.10;;;6.10;99.90;;;;;;5051714;28;20224;-56
2023/12/16 05:55:48;;;;;;;17.10;5.47;;;6.10;99.90;;;;;;5055365;28;20185;-57
2023/12/16 05:58:16;;;;;;;18.83;5.17;;;6.10;99.90;;;;;;5050937;28;20232;-55
2023/12/16 06:00:48;;;;;;;25.43;5.53;;;6.10;99.90;;;;;;5065947;28;20222;-54
2023/12/16 06:03:17;;;;;;;19.87;4.93;;;6.00;99.90;;;;;;5062266;28;20629;-56
2023/12/16 06:05:45;;;;;;;15.57;5.17;;;6.00;99.90;;;;;;5045145;28;20308;-56
2023/12/16 06:08:13;;;;;;;22.67;5.53;;;6.00;99.90;;;;;;5049654;28;20237;-56
2023/12/16 06:10:43;;;;;;;16.23;5.23;;;6.00;99.90;;;;;;5049289;28;20232;-55
2023/12/16 06:13:11;;;;;;;19.47;4.97;;;6.00;99.90;;;;;;5050525;28;20671;-56
2023/12/16 06:15:39;;;;;;;15.90;5.57;;;6.00;99.90;;;;;;5056873;28;20290;-56
2023/12/16 06:18:08;;;;;;;13.50;5.30;;;6.00;99.90;;;;;;5059376;28;20231;-54
2023/12/16 06:20:36;;;;;;;18.13;5.17;;;6.10;99.90;;;;;;5052993;28;20825;-55
2023/12/16 06:23:04;;;;;;;20.33;5.60;;;6.10;99.90;;;;;;5068806;28;20563;-56
2023/12/16 06:25:33;;;;;;;13.60;4.60;;;6.20;99.90;;;;;;5066624;28;20291;-57
2023/12/16 06:28:03;;;;;;;19.63;5.20;;;6.20;99.90;;;;;;5065041;28;20212;-57
2023/12/16 06:30:31;;;;;;;14.40;5.03;;;6.30;99.90;;;;;;5050307;28;20217;-56
2023/12/16 06:32:59;;;;;;;17.00;5.23;;;6.40;99.90;;;;;;5051630;28;20222;-56
2023/12/16 06:35:27;;;;;;;15.57;5.10;;;6.50;99.90;;;;;;5049603;28;20597;-57
2023/12/16 06:37:56;;;;;;;12.43;4.60;;;6.60;99.90;;;;;;5047884;28;20216;-55
2023/12/16 06:40:24;;;;;;;14.57;4.60;;;6.60;99.90;;;;;;5048425;28;20200;-55
2023/12/16 06:42:52;;;;;;;20.07;5.07;;;6.70;99.90;;;;;;5048179;28;20241;-56
2023/12/16 06:45:21;;;;;;;14.63;4.60;;;6.70;99.90;;;;;;5049007;28;20612;-54
2023/12/16 06:47:49;;;;;;;20.63;4.73;;;6.70;99.90;;;;;;5045394;28;20229;-57
2023/12/16 06:50:17;;;;;;;19.10;4.90;;;6.70;99.90;;;;;;5039634;28;20217;-57
2023/12/16 06:52:45;;;;;;;21.43;5.33;;;6.80;99.90;;;;;;5044651;28;20188;-56
2023/12/16 06:55:14;;;;;;;15.10;5.07;;;6.80;99.90;;;;;;5049498;28;20209;-55
2023/12/16 06:57:42;;;;;;;15.37;5.03;;;6.80;99.90;;;;;;5050638;28;20220;-56
2023/12/16 07:00:12;;;;;;;18.40;4.37;;;6.80;99.90;;;;;;5052371;28;20223;-57
2023/12/16 07:02:43;;;;;;;13.70;4.77;;;6.90;99.90;;;;;;5043269;28;21225;-56
2023/12/16 07:05:12;;;;;;;20.30;4.53;;;7.00;99.90;;;;;;5066773;28;20654;-55
2023/12/16 07:07:40;;;;;;;19.47;4.80;;;7.00;99.90;;;;;;5050327;28;20271;-57
2023/12/16 07:10:09;;;;;;;16.37;5.17;;;7.00;99.90;;;;;;5047503;28;20233;-56
2023/12/16 07:12:38;;;;;;;16.83;4.37;;;7.00;99.90;;;;;;5048955;28;20243;-56
2023/12/16 07:15:07;;;;;;;19.80;5.20;;;7.10;99.90;;;;;;5050940;28;20235;-57
2023/12/16 07:17:35;;;;;;;16.43;4.87;;;7.10;99.90;;;;;;5048224;28;20638;-56
2023/12/16 07:20:06;;;;;;;15.17;5.30;;;7.20;99.90;;;;;;5051088;28;20262;-55
2023/12/16 07:22:35;;;;;;;14.50;4.77;;;7.20;99.90;;;;;;5043872;28;20564;-55
2023/12/16 07:25:04;;;;;;;19.27;4.73;;;7.20;99.90;;;;;;5043313;28;20773;-56
2023/12/16 07:27:32;;;;;;;20.27;5.23;;;7.20;99.90;;;;;;5049339;28;20729;-56
2023/12/16 07:30:02;;;;;;;15.50;4.90;;;7.30;99.90;;;;;;5047292;28;20221;-57
2023/12/16 07:32:30;;;;;;;19.83;5.17;;;7.30;99.90;;;;;;5039596;28;20260;-56
2023/12/16 07:34:59;;;;;;;15.63;5.67;;;7.20;99.90;;;;;;5043671;28;20220;-57
2023/12/16 07:37:28;;;;;;;19.50;4.87;;;7.10;99.90;;;;;;5050344;28;20192;-57
2023/12/16 07:39:57;;;;;;;14.70;4.70;;;7.10;99.90;;;;;;5041072;28;20221;-56
2023/12/16 07:42:25;;;;;;;18.43;5.17;;;7.20;99.90;;;;;;5065395;28;20650;-57
2023/12/16 07:44:53;;;;;;;19.60;5.43;;;7.20;99.90;;;;;;5064998;28;20281;-57
2023/12/16 07:47:22;;;;;;;15.60;5.27;;;7.20;99.90;;;;;;5063256;28;20323;-57
2023/12/16 07:49:49;;;;;;;19.87;5.50;;;7.20;99.90;;;;;;5073944;28;20200;-57
2023/12/16 07:52:17;;;;;;;16.67;5.53;;;7.20;99.90;;;;;;5073506;28;20219;-57
2023/12/16 07:54:47;;;;;;;18.80;5.07;;;7.30;99.90;;;;;;5068283;28;20222;-57
2023/12/16 07:57:15;;;;;;;23.80;5.20;;;7.30;99.90;;;;;;5063111;28;20270;-57
2023/12/16 07:59:44;;;;;;;18.97;5.43;;;7.30;99.90;;;;;;5068166;28;20223;-55
2023/12/16 08:02:12;;;;;;;14.00;5.30;;;7.20;99.90;;;;;;5070128;28;20249;-57
2023/12/16 08:04:40;;;;;;;19.40;5.27;;;7.30;99.90;;;;;;5063191;28;20542;-56
2023/12/16 08:07:08;;;;;;;16.03;5.00;;;7.30;99.90;;;;;;5066336;28;20551;-57
2023/12/16 08:09:37;;;;;;;17.97;5.83;;;7.30;99.90;;;;;;5065281;28;20642;-56
2023/12/16 08:12:07;;;;;;;18.17;5.50;;;7.40;99.90;;;;;;5049849;28;20221;-58
2023/12/16 08:14:35;;;;;;;19.57;5.60;;;7.40;99.90;;;;;;5044035;28;20216;-54
2023/12/16 08:17:04;;;;;;;15.03;5.50;;;7.40;99.90;;;;;;5043022;28;20611;-57
2023/12/16 08:19:32;;;;;;;13.13;4.63;;;7.50;99.90;;;;;;5048293;28;20981;-55
2023/12/16 08:22:00;;;;;;;21.57;5.33;;;7.50;99.90;;;;;;5041954;28;20225;-57
2023/12/16 08:24:30;;;;;;;21.43;5.60;;;7.50;99.90;;;;;;5046796;28;20554;-55
2023/12/16 08:26:58;;;;;;;16.23;5.37;;;7.60;99.90;;;;;;5045488;28;20717;-56
2023/12/16 08:29:27;;;;;;;20.97;5.63;;;7.60;99.90;;;;;;5050626;28;20224;-56
2023/12/16 08:31:56;;;;;;;23.60;5.43;;;7.60;99.90;;;;;;5048810;28;20209;-58
2023/12/16 08:34:24;;;;;;;14.33;5.13;;;7.60;99.90;;;;;;5052561;28;20239;-54
2023/12/16 08:36:54;;;;;;;23.97;5.60;;;7.70;99.90;;;;;;5049568;28;20255;-56
2023/12/16 08:39:23;;;;;;;13.47;5.37;;;7.70;99.90;;;;;;5051857;28;20570;-57
2023/12/16 08:41:51;;;;;;;17.03;5.30;;;7.70;99.90;;;;;;5048322;28;20221;-57
2023/12/16 08:44:19;;;;;;;21.40;5.67;;;7.80;99.90;;;;;;5046335;28;20219;-56
2023/12/16 08:46:49;;;;;;;11.80;5.10;;;7.80;99.90;;;;;;5055764;28;20215;-57
2023/12/16 08:49:17;;;;;;;17.13;5.80;;;7.80;99.90;;;;;;5050460;28;20903;-57
2023/12/16 08:51:46;;;;;;;17.03;5.67;;;7.90;99.90;;;;;;5063567;28;20301;-57
2023/12/16 08:54:14;;;;;;;24.20;6.10;;;7.90;99.90;;;;;;5066693;28;20216;-55
2023/12/16 08:56:43;;;;;;;19.60;5.83;;;7.90;99.90;;;;;;5070590;28;20219;-57
2023/12/16 08:59:11;;;;;;;17.13;5.67;;;8.00;99.90;;;;;;5070020;28;20662;-56
2023/12/16 09:01:41;;;;;;;16.60;5.17;;;8.00;99.90;;;;;;5073609;28;20184;-57
2023/12/16 09:04:10;;;;;;;22.70;5.83;;;8.10;99.90;;;;;;5071834;28;20686;-57
2023/12/16 09:06:41;;;;;;;19.70;6.27;;;8.10;99.90;;;;;;5070389;28;21195;-57
2023/12/16 09:09:11;;;;;;;18.70;6.07;;;8.20;99.90;;;;;;5066390;28;20238;-57
2023/12/16 09:11:41;;;;;;;26.13;5.93;;;8.20;99.90;;;;;;5089056;28;20228;-58
2023/12/16 09:14:10;;;;;;;14.37;5.80;;;8.30;99.90;;;;;;5043913;28;20204;-57
2023/12/16 09:16:38;;;;;;;19.57;5.50;;;8.30;99.90;;;;;;5068210;28;20642;-58
2023/12/16 09:19:07;;;;;;;19.23;5.90;;;8.40;99.90;;;;;;5066945;28;20227;-57
2023/12/16 09:21:37;;;;;;;16.60;5.23;;;8.40;99.90;;;;;;5065162;28;20254;-57
2023/12/16 09:24:06;;;;;;;18.17;5.57;;;8.40;99.90;;;;;;5058311;28;20624;-57
2023/12/16 09:26:34;;;;;;;23.60;6.33;;;8.50;99.90;;;;;;5069434;28;20355;-58
2023/12/16 09:29:05;;;;;;;20.87;5.93;;;8.50;99.90;;;;;;5064991;28;20197;-57
2023/12/16 09:31:34;;;;;;;19.23;6.50;;;8.50;99.90;;;;;;5070060;28;20195;-57
2023/12/16 09:34:02;;;;;;;17.03;6.20;;;8.50;99.90;;;;;;5064160;28;20697;-57
2023/12/16 09:36:30;;;;;;;17.27;5.23;;;8.60;99.90;;;;;;5061088;28;20218;-56
2023/12/16 09:39:00;;;;;;;18.00;5.97;;;8.60;99.90;;;;;;5061174;28;20224;-55
2023/12/16 09:41:29;;;;;;;18.40;6.30;;;8.60;99.90;;;;;;5066418;28;20219;-57
2023/12/16 09:43:59;;;;;;;23.57;5.90;;;8.70;99.90;;;;;;5070292;28;20196;-53
2023/12/16 09:46:30;;;;;;;18.40;5.93;;;8.70;99.90;;;;;;5069558;28;20279;-56
2023/12/16 09:49:00;;;;;;;20.00;5.97;;;8.70;99.90;;;;;;5067908;28;20244;-56
2023/12/16 09:51:29;;;;;;;18.10;6.30;;;8.70;99.90;;;;;;5067801;28;20227;-56
2023/12/16 09:53:57;;;;;;;22.17;7.80;;;8.70;99.90;;;;;;5070860;28;20744;-57
2023/12/16 09:56:29;;;;;;;23.70;7.40;;;8.80;99.90;;;;;;5073209;28;20224;-56
2023/12/16 09:59:00;;;;;;;14.97;5.57;;;8.80;99.90;;;;;;5068581;28;20771;-56
2023/12/16 10:01:28;;;;;;;18.07;5.30;;;8.90;99.90;;;;;;5057896;28;20200;-57
2023/12/16 10:03:59;;;;;;;23.83;6.13;;;8.90;99.90;;;;;;5066897;28;20212;-57
2023/12/16 10:06:28;;;;;;;18.87;5.47;;;8.90;99.90;;;;;;5067345;28;20308;-57
2023/12/16 10:08:56;;;;;;;22.93;8.30;;;8.90;99.90;;;;;;5070533;28;20590;-57
2023/12/16 10:11:25;;;;;;;15.47;5.53;;;9.00;99.90;;;;;;5074979;28;20222;-57
2023/12/16 10:13:59;;;;;;;17.87;6.10;;;9.00;99.90;;;;;;5072176;28;20199;-56
2023/12/16 10:16:28;;;;;;;18.83;5.37;;;9.10;99.90;;;;;;5063100;28;20739;-57
2023/12/16 10:18:58;;;;;;;15.00;5.07;;;9.10;99.90;;;;;;5063558;28;20263;-58
2023/12/16 10:21:27;;;;;;;19.47;5.33;;;9.10;99.90;;;;;;5065946;28;20215;-56
2023/12/16 10:23:57;;;;;;;15.13;4.67;;;9.10;99.90;;;;;;5062181;28;20582;-57
2023/12/16 10:26:26;;;;;;;19.80;5.40;;;9.10;99.90;;;;;;5067078;28;20230;-56
2023/12/16 10:29:01;;;;;;;21.17;5.97;;;9.20;99.90;;;;;;5067890;28;20231;-57
2023/12/16 10:31:29;;;;;;;19.37;4.90;;;9.20;99.90;;;;;;5064462;28;20207;-56
2023/12/16 10:34:01;;;;;;;18.90;5.23;;;9.30;99.90;;;;;;5070383;28;20590;-56
2023/12/16 10:36:30;;;;;;;17.43;5.10;;;9.40;99.90;;;;;;5069113;28;20254;-55
2023/12/16 10:38:58;;;;;;;24.40;5.27;;;9.40;99.90;;;;;;5069044;28;20740;-56
2023/12/16 10:41:27;;;;;;;17.20;5.70;;;9.50;99.90;;;;;;5069710;28;20211;-55
2023/12/16 10:43:55;;;;;;;18.60;5.27;;;9.50;99.90;;;;;;5069175;28;20196;-57
2023/12/16 10:46:33;;;;;;;20.13;5.00;;;9.50;99.90;;;;;;5071142;28;20218;-57
2023/12/16 10:49:02;;;;;;;18.10;5.90;;;9.60;99.90;;;;;;5064140;28;20257;-54
2023/12/16 10:51:33;;;;;;;16.87;6.33;;;9.70;99.90;;;;;;5067629;28;20277;-57
2023/12/16 10:54:06;;;;;;;19.63;5.17;;;9.70;99.90;;;;;;5070421;28;20255;-57
2023/12/16 10:56:41;;;;;;;18.03;5.10;;;9.80;99.90;;;;;;5061111;28;20226;-57
2023/12/16 10:59:17;;;;;;;17.23;5.23;;;9.80;99.90;;;;;;5073644;28;20188;-56
2023/12/16 11:01:55;;;;;;;15.13;5.20;;;9.80;99.90;;;;;;5064607;28;20197;-57
2023/12/16 11:04:47;;;;;;;18.93;5.23;;;9.80;99.90;;;;;;5051997;28;20207;-58
2023/12/16 11:07:18;;;;;;;19.97;5.27;;;9.80;99.90;;;;;;5047721;28;20217;-55
2023/12/16 11:09:46;;;;;;;18.97;5.33;;;9.80;99.90;;;;;;5050013;28;20220;-56
2023/12/16 11:12:15;;;;;;;12.57;5.63;;;9.80;99.90;;;;;;5047355;28;20705;-56
2023/12/16 11:14:44;;;;;;;16.83;5.33;;;9.80;99.90;;;;;;5054782;28;20213;-57
2023/12/16 11:17:22;;;;;;;15.37;6.27;;;9.80;99.90;;;;;;5067412;28;20197;-57
2023/12/16 11:19:59;;;;;;;15.37;5.67;;;9.80;99.90;;;;;;5081470;28;20290;-55
2023/12/16 11:22:27;;;;;;;14.63;5.03;;;9.80;99.90;;;;;;5040316;28;20235;-57
2023/12/16 11:24:57;;;;;;;15.60;5.23;;;9.80;99.90;;;;;;5063058;28;20216;-57
2023/12/16 11:27:29;;;;;;;21.03;5.73;;;9.80;99.90;;;;;;5068717;28;20222;-57
2023/12/16 11:29:57;;;;;;;21.53;5.93;;;9.80;99.90;;;;;;5066297;28;20211;-56
2023/12/16 11:32:27;;;;;;;21.77;5.73;;;9.80;99.90;;;;;;5068677;28;20226;-55
2023/12/16 11:34:56;;;;;;;18.23;5.40;;;9.80;99.90;;;;;;5064308;28;20223;-57
2023/12/16 11:37:46;;;;;;;15.13;5.33;;;9.80;99.90;;;;;;5063062;28;20304;-57
2023/12/16 11:40:49;;;;;;;17.40;5.77;;;9.90;99.90;;;;;;5061686;28;20221;-56
2023/12/16 11:43:17;;;;;;;18.03;5.23;;;9.90;99.90;;;;;;5005954;28;20221;-57
2023/12/16 11:45:48;;;;;;;14.03;5.27;;;10.00;99.90;;;;;;5004212;28;20229;-55
2023/12/16 11:48:18;;;;;;;21.87;5.67;;;10.00;99.90;;;;;;5032400;28;20227;-57
2023/12/16 11:50:48;;;;;;;20.47;5.67;;;10.10;99.90;;;;;;5076202;28;20220;-57
2023/12/16 11:53:19;;;;;;;20.00;5.43;;;10.00;99.90;;;;;;5067239;28;20231;-57
2023/12/16 11:55:47;;;;;;;19.30;5.93;;;10.10;99.90;;;;;;5042433;28;20192;-57
2023/12/16 11:58:18;;;;;;;16.43;5.57;;;10.00;99.90;;;;;;5062797;28;20216;-57
2023/12/16 12:00:49;;;;;;;18.13;5.70;;;10.10;99.90;;;;;;5057996;28;20243;-57
2023/12/16 12:03:21;;;;;;;20.10;6.07;;;10.10;99.90;;;;;;5067047;28;20220;-55
2023/12/16 12:05:51;;;;;;;20.80;5.80;;;10.10;99.90;;;;;;5060519;28;20222;-58
2023/12/16 12:08:20;;;;;;;11.60;5.23;;;10.10;99.90;;;;;;5038534;28;20232;-55
2023/12/16 12:10:52;;;;;;;15.37;5.27;;;10.10;99.90;;;;;;5046099;28;20211;-56
2023/12/16 12:13:20;;;;;;;21.57;6.13;;;10.10;99.90;;;;;;5039514;28;20228;-57
2023/12/16 12:16:11;;;;;;;13.83;5.13;;;10.10;99.90;;;;;;5057536;28;20227;-57
2023/12/16 12:18:41;;;;;;;24.80;6.50;;;10.10;99.90;;;;;;5068060;28;20208;-55
2023/12/16 12:21:10;;;;;;;20.07;6.03;;;10.10;99.90;;;;;;5063895;28;20226;-54
2023/12/16 12:23:40;;;;;;;19.30;5.80;;;10.00;99.90;;;;;;5068170;28;20216;-55
2023/12/16 12:26:09;;;;;;;18.63;5.37;;;10.10;99.90;;;;;;5068071;28;20204;-57
2023/12/16 12:28:37;;;;;;;17.40;5.73;;;10.10;99.90;;;;;;5068565;28;20289;-57
2023/12/16 12:31:07;;;;;;;22.60;5.53;;;10.10;99.90;;;;;;5067897;28;20220;-57
2023/12/16 12:33:36;;;;;;;26.57;5.67;;;10.00;99.90;;;;;;5070064;28;20674;-54
2023/12/16 12:36:10;;;;;;;15.60;4.93;;;10.10;99.90;;;;;;5064447;28;20222;-57
2023/12/16 12:38:38;;;;;;;17.03;5.80;;;10.10;99.90;;;;;;5064837;28;20242;-56
2023/12/16 12:41:08;;;;;;;19.43;5.60;;;10.10;99.90;;;;;;5061124;28;20197;-54
2023/12/16 12:43:37;;;;;;;23.90;5.60;;;10.10;99.90;;;;;;5066888;28;20184;-57
2023/12/16 12:46:08;;;;;;;18.07;5.27;;;10.10;99.90;;;;;;5064725;28;20227;-56
2023/12/16 12:48:39;;;;;;;26.83;5.80;;;10.10;99.90;;;;;;5064104;28;20311;-57
2023/12/16 12:51:11;;;;;;;23.93;5.80;;;10.10;99.90;;;;;;5066393;28;20227;-55
2023/12/16 12:53:40;;;;;;;25.30;8.40;;;10.10;99.90;;;;;;5066807;28;20216;-57
2023/12/16 12:56:09;;;;;;;26.10;6.67;;;10.20;99.90;;;;;;5071495;28;20224;-56